Time;durP1;ratioP1;P1;durP2;ratioP2;P2;SDS_P1;SDS_P2;PMS_P1;PMS_P2;Temp;Humidity;BMP_temperature;BMP_pressure;BME280_temperature;BME280_humidity;BME280_pressure;Samples;Min_cycle;Max_cycle;Signal;HPM_P1;HPM_P2
2021/10/02 00:53:54;;;;;;;11.30;7.60;;;;;;;8.78;86.27;98969.65;114504;1201;22468;-92
2021/10/02 01:04:52;;;;;;;10.30;7.10;;;;;;;8.68;86.32;98962.20;114818;1193;138287;-92
2021/10/02 01:08:03;;;;;;;10.10;7.20;;;;;;;8.66;86.35;98968.88;114601;1197;22752;-91
2021/10/02 01:15:11;;;;;;;9.10;7.10;;;;;;;8.67;86.67;98963.42;114458;1196;137400;-94
2021/10/02 01:19:12;;;;;;;9.30;6.60;;;;;;;8.65;86.27;98954.45;114876;1203;22441;-91
2021/10/02 01:22:09;;;;;;;8.20;6.50;;;;;;;8.64;86.28;98960.44;114636;1204;137601;-90
2021/10/02 01:29:26;;;;;;;9.30;7.40;;;;;;;8.58;85.99;98953.34;114496;1205;137532;-92
2021/10/02 01:32:57;;;;;;;9.50;6.70;;;;;;;8.55;86.21;98951.20;114436;1189;23905;-91
2021/10/02 01:50:37;;;;;;;10.30;7.50;;;;;;;8.42;86.39;98946.08;114569;1202;22452;-91
2021/10/02 01:53:33;;;;;;;11.40;7.50;;;;;;;8.42;86.71;98945.54;114403;1198;137832;-91
2021/10/02 01:56:25;;;;;;;11.30;7.60;;;;;;;8.34;86.42;98942.23;114612;1203;22453;-91
2021/10/02 01:59:34;;;;;;;10.10;6.90;;;;;;;8.24;86.23;98940.88;114455;1203;138275;-92
2021/10/02 02:05:52;;;;;;;10.60;7.50;;;;;;;8.09;86.49;98943.55;114082;1204;137433;-91
2021/10/02 02:09:26;;;;;;;11.80;8.40;;;;;;;8.10;86.76;98940.42;114535;1195;23252;-91
2021/10/02 02:12:32;;;;;;;11.30;8.30;;;;;;;8.14;87.24;98939.10;114559;1202;137847;-92
2021/10/02 02:15:48;;;;;;;10.00;7.40;;;;;;;8.14;86.58;98934.55;114306;1204;22598;-91
2021/10/02 02:18:38;;;;;;;11.50;7.30;;;;;;;8.09;86.69;98927.23;114210;1204;22604;-91
2021/10/02 02:21:16;;;;;;;11.10;8.10;;;;;;;8.06;86.41;98926.13;114520;1202;22529;-91
2021/10/02 02:24:03;;;;;;;9.90;7.40;;;;;;;7.95;86.12;98922.30;114019;1196;137803;-90
2021/10/02 02:26:52;;;;;;;11.00;7.80;;;;;;;7.91;86.56;98919.07;114015;1204;25092;-90
2021/10/02 02:29:50;;;;;;;11.30;8.10;;;;;;;7.90;86.89;98924.42;114198;1204;138662;-92
2021/10/02 02:32:34;;;;;;;12.70;8.30;;;;;;;7.94;87.15;98922.18;114115;1189;22492;-91
2021/10/02 02:35:00;;;;;;;10.60;8.20;;;;;;;7.95;87.06;98913.54;114007;1204;137934;-91
2021/10/02 02:37:35;;;;;;;10.20;7.60;;;;;;;7.94;86.73;98917.67;114225;1204;22454;-92
2021/10/02 02:40:25;;;;;;;10.80;7.60;;;;;;;7.93;86.43;98914.14;114542;1203;22552;-92
2021/10/02 02:43:24;;;;;;;10.70;7.60;;;;;;;7.89;86.43;98911.37;114135;1190;22473;-91
2021/10/02 02:46:26;;;;;;;12.90;7.90;;;;;;;7.81;86.02;98912.29;114490;1204;22860;-90
2021/10/02 02:49:22;;;;;;;10.10;7.80;;;;;;;7.75;86.35;98904.75;114159;1203;138182;-91
2021/10/02 02:52:28;;;;;;;13.30;8.50;;;;;;;7.69;86.48;98904.15;114072;1203;23133;-91
2021/10/02 02:55:43;;;;;;;12.90;7.70;;;;;;;7.68;86.67;98898.52;114223;1202;138521;-92
2021/10/02 02:58:21;;;;;;;11.10;7.50;;;;;;;7.68;86.32;98897.99;114334;1203;22440;-91
2021/10/02 03:00:57;;;;;;;11.10;7.80;;;;;;;7.70;86.55;98906.08;114172;1195;137317;-91
2021/10/02 03:03:38;;;;;;;12.40;8.10;;;;;;;7.71;86.42;98908.48;114355;1203;22469;-90
2021/10/02 03:06:11;;;;;;;31.50;9.20;;;;;;;7.69;86.12;98907.95;114359;1203;137809;-91
2021/10/02 03:08:40;;;;;;;12.80;7.80;;;;;;;7.68;86.13;98906.45;114061;1204;22500;-91
2021/10/02 03:11:09;;;;;;;9.00;6.60;;;;;;;7.69;86.07;98904.88;114026;1189;138329;-91
2021/10/02 03:13:46;;;;;;;10.70;7.10;;;;;;;7.71;85.93;98904.98;114091;1200;22531;-92
2021/10/02 03:16:14;;;;;;;10.30;7.60;;;;;;;7.69;85.75;98907.07;114149;1203;23195;-92
2021/10/02 03:18:44;;;;;;;11.90;7.80;;;;;;;7.67;86.02;98902.63;113646;1205;138388;-91
2021/10/02 03:21:20;;;;;;;13.50;8.60;;;;;;;7.63;85.56;98901.84;113899;1203;22467;-91
2021/10/02 03:24:02;;;;;;;10.70;7.50;;;;;;;7.58;85.33;98898.23;113839;1203;137820;-91
2021/10/02 03:26:32;;;;;;;10.80;7.70;;;;;;;7.54;85.57;98899.59;113824;1200;25045;-90
2021/10/02 03:29:05;;;;;;;13.70;8.60;;;;;;;7.49;85.58;98900.65;114227;1203;137919;-91
2021/10/02 03:31:46;;;;;;;12.00;8.10;;;;;;;7.45;85.53;98897.77;114319;1203;22451;-90
2021/10/02 03:34:31;;;;;;;9.90;7.20;;;;;;;7.39;85.22;98899.52;114054;1203;24023;-91
2021/10/02 03:37:24;;;;;;;9.90;7.20;;;;;;;7.31;85.41;98896.70;113693;1203;137572;-91
2021/10/02 03:40:00;;;;;;;10.60;7.40;;;;;;;7.27;85.62;98897.17;114640;1203;22452;-90
2021/10/02 03:42:48;;;;;;;13.40;8.00;;;;;;;7.27;86.03;98895.92;113980;1204;137450;-91
2021/10/02 03:45:23;;;;;;;11.90;7.40;;;;;;;7.26;85.66;98897.77;113938;1203;25188;-91
2021/10/02 03:48:10;;;;;;;8.90;6.80;;;;;;;7.26;85.63;98895.89;114264;1204;138689;-92
2021/10/02 03:50:45;;;;;;;10.70;6.60;;;;;;;7.26;85.37;98890.84;114122;1202;22442;-91
2021/10/02 03:53:14;;;;;;;10.40;7.10;;;;;;;7.25;85.59;98892.27;114030;1203;137777;-91
2021/10/02 03:55:43;;;;;;;9.30;6.30;;;;;;;7.22;85.51;98889.77;114326;1203;23777;-91
2021/10/02 03:58:23;;;;;;;9.40;6.70;;;;;;;7.20;85.48;98889.81;113981;1203;22513;-91
2021/10/02 04:00:50;;;;;;;10.30;6.40;;;;;;;7.18;85.40;98888.91;114759;1203;137952;-90
2021/10/02 04:03:17;;;;;;;10.10;6.30;;;;;;;7.17;85.44;98886.29;113844;1201;23873;-91
2021/10/02 04:05:44;;;;;;;8.10;6.30;;;;;;;7.16;85.13;98885.58;114317;1203;137565;-91
2021/10/02 04:08:10;;;;;;;10.50;6.70;;;;;;;7.14;85.23;98886.75;114177;1202;23968;-91
2021/10/02 04:10:37;;;;;;;9.60;6.30;;;;;;;7.10;85.00;98884.38;113945;1180;22465;-91
2021/10/02 04:13:07;;;;;;;8.90;6.00;;;;;;;7.09;85.05;98892.89;113627;1203;138596;-91
2021/10/02 04:15:37;;;;;;;10.00;6.70;;;;;;;7.07;85.23;98893.69;113972;1203;22441;-91
2021/10/02 04:18:04;;;;;;;8.90;6.10;;;;;;;7.05;84.91;98896.27;114212;1192;137429;-90
2021/10/02 04:20:31;;;;;;;9.90;6.90;;;;;;;7.02;85.09;98897.41;114360;1203;24021;-91
2021/10/02 04:23:00;;;;;;;10.10;6.30;;;;;;;6.98;85.18;98893.54;114273;1203;137830;-90
2021/10/02 04:25:26;;;;;;;12.60;7.00;;;;;;;6.94;84.74;98892.70;113790;1196;25038;-91
2021/10/02 04:27:56;;;;;;;12.10;6.30;;;;;;;6.91;85.03;98887.71;113984;1202;23021;-91
2021/10/02 04:30:23;;;;;;;11.10;7.10;;;;;;;6.88;85.21;98892.25;114583;1203;137357;-90
2021/10/02 04:32:49;;;;;;;13.80;7.90;;;;;;;6.85;85.26;98887.89;114143;1203;22940;-92
2021/10/02 04:35:16;;;;;;;8.40;6.60;;;;;;;6.78;84.95;98890.52;113857;1203;137569;-91
2021/10/02 04:37:43;;;;;;;8.50;6.00;;;;;;;6.75;85.17;98892.10;114077;1204;25445;-91
2021/10/02 04:40:13;;;;;;;10.90;6.70;;;;;;;6.70;85.03;98889.89;114296;1203;24021;-90
2021/10/02 04:42:40;;;;;;;11.90;6.90;;;;;;;6.66;85.61;98888.77;114391;1203;137443;-90
2021/10/02 04:45:07;;;;;;;11.00;7.50;;;;;;;6.64;85.77;98894.20;114377;1202;25123;-91
2021/10/02 04:47:41;;;;;;;11.30;7.20;;;;;;;6.64;85.80;98889.31;114139;1196;137693;-91
2021/10/02 04:50:08;;;;;;;8.30;6.60;;;;;;;6.68;85.93;98892.86;114026;1203;22580;-91
2021/10/02 04:52:38;;;;;;;8.70;6.50;;;;;;;6.72;85.89;98890.52;114503;1204;22517;-91
2021/10/02 04:55:06;;;;;;;8.40;6.40;;;;;;;6.74;85.97;98894.43;113917;1203;138353;-91
2021/10/02 04:57:35;;;;;;;10.30;6.80;;;;;;;6.76;86.29;98893.77;113894;1203;22487;-91
2021/10/02 05:00:10;;;;;;;10.10;6.40;;;;;;;6.79;86.09;98892.90;114194;1203;137441;-91
2021/10/02 05:02:52;;;;;;;12.30;7.00;;;;;;;6.82;86.01;98889.14;114196;1203;23177;-91
2021/10/02 05:05:18;;;;;;;13.60;7.20;;;;;;;6.80;85.83;98887.05;114077;1203;138290;-91
2021/10/02 05:07:45;;;;;;;9.50;6.80;;;;;;;6.81;85.68;98891.77;113941;1203;24018;-91
2021/10/02 05:10:12;;;;;;;10.50;7.00;;;;;;;6.83;85.87;98888.59;114293;1203;25167;-91
2021/10/02 05:12:39;;;;;;;10.30;6.50;;;;;;;6.88;86.19;98888.17;113841;1202;137807;-90
2021/10/02 05:15:08;;;;;;;10.00;6.80;;;;;;;6.87;85.45;98890.96;115261;1202;23132;-91
2021/10/02 05:17:35;;;;;;;12.30;7.10;;;;;;;6.84;85.64;98889.52;114231;1203;139120;-91
2021/10/02 05:20:04;;;;;;;10.00;6.70;;;;;;;6.88;85.71;98894.67;114579;1202;24064;-90
2021/10/02 05:22:31;;;;;;;10.90;6.60;;;;;;;6.92;85.79;98894.96;114287;1203;25464;-91
2021/10/02 05:24:58;;;;;;;11.20;7.50;;;;;;;6.93;85.78;98892.45;114348;1203;138233;-90
2021/10/02 05:27:25;;;;;;;11.60;7.70;;;;;;;6.96;85.83;98901.23;114513;1204;22308;-91
2021/10/02 05:29:51;;;;;;;14.90;7.80;;;;;;;6.95;85.80;98894.04;113934;1203;138249;-90
2021/10/02 05:32:20;;;;;;;10.90;7.10;;;;;;;6.97;85.69;98894.86;114402;1203;23310;-90
2021/10/02 05:35:13;;;;;;;12.60;6.90;;;;;;;6.99;85.80;98896.04;114335;1203;23809;-91
2021/10/02 05:37:40;;;;;;;12.90;7.70;;;;;;;7.01;85.88;98896.61;114544;1203;25295;-91
2021/10/02 05:40:07;;;;;;;11.30;7.00;;;;;;;7.06;86.12;98894.67;114224;1203;22561;-90
2021/10/02 05:42:33;;;;;;;12.30;7.00;;;;;;;7.11;86.07;98896.50;114356;1203;138289;-90
2021/10/02 05:45:00;;;;;;;9.70;6.20;;;;;;;7.19;86.76;98893.58;113927;1204;22551;-91
2021/10/02 05:47:28;;;;;;;14.40;7.20;;;;;;;7.25;86.74;98896.02;113595;1203;138865;-90
2021/10/02 05:49:55;;;;;;;10.90;7.30;;;;;;;7.31;86.75;98895.49;114574;1202;22548;-91
2021/10/02 05:52:21;;;;;;;11.60;7.00;;;;;;;7.36;86.76;98892.85;114579;1199;24068;-90
2021/10/02 05:54:48;;;;;;;9.20;6.90;;;;;;;7.42;86.79;98891.66;113877;1203;138142;-90
2021/10/02 05:57:14;;;;;;;15.20;7.90;;;;;;;7.49;86.53;98893.55;114268;1203;22449;-89
2021/10/02 05:59:41;;;;;;;16.10;10.40;;;;;;;7.55;86.58;98893.77;114401;1203;137609;-90
2021/10/02 06:02:10;;;;;;;16.10;11.40;;;;;;;7.59;86.41;98896.02;114344;1203;22432;-90
2021/10/02 06:04:37;;;;;;;16.20;10.30;;;;;;;7.61;86.63;98896.27;113562;1204;23108;-90
2021/10/02 06:07:04;;;;;;;16.40;9.80;;;;;;;7.65;86.70;98902.05;114014;1203;138358;-90
2021/10/02 06:09:30;;;;;;;18.20;9.90;;;;;;;7.70;86.70;98899.77;114373;1202;22593;-89
2021/10/02 06:11:57;;;;;;;16.80;9.80;;;;;;;7.74;86.77;98904.91;113661;1204;137990;-90
2021/10/02 06:14:23;;;;;;;17.80;10.50;;;;;;;7.79;86.92;98904.73;113743;1203;22449;-90
2021/10/02 06:16:49;;;;;;;23.80;12.60;;;;;;;7.85;87.27;98903.83;113740;1202;22295;-89
2021/10/02 06:19:17;;;;;;;22.10;12.40;;;;;;;7.90;87.43;98905.35;113596;1203;138963;-90
2021/10/02 06:21:45;;;;;;;17.40;10.10;;;;;;;7.97;87.49;98909.45;113957;1197;22809;-90
2021/10/02 06:24:12;;;;;;;13.90;9.40;;;;;;;8.06;88.12;98907.35;113707;1204;138025;-90
2021/10/02 06:26:39;;;;;;;15.50;8.80;;;;;;;8.14;88.01;98908.14;114678;1203;22989;-90
2021/10/02 06:29:07;;;;;;;11.90;7.70;;;;;;;8.24;88.20;98908.60;114288;1203;22481;-89
2021/10/02 06:31:33;;;;;;;9.30;6.50;;;;;;;8.32;88.27;98908.73;113698;1199;138564;-89
2021/10/02 06:33:59;;;;;;;10.00;7.00;;;;;;;8.42;88.26;98908.92;114568;1200;22428;-89
2021/10/02 06:36:27;;;;;;;10.30;6.90;;;;;;;8.53;88.36;98909.36;113960;1196;137961;-90
2021/10/02 06:38:54;;;;;;;8.70;6.50;;;;;;;8.64;88.39;98907.40;114178;1195;25367;-90
2021/10/02 06:41:22;;;;;;;10.30;7.10;;;;;;;8.72;88.15;98908.04;113858;1203;159242;-89
2021/10/02 06:44:11;;;;;;;9.90;7.10;;;;;;;8.80;88.27;98908.34;114663;1203;24253;-90
2021/10/02 06:47:01;;;;;;;10.20;7.50;;;;;;;8.91;88.44;98901.86;114412;1203;22278;-91
2021/10/02 06:49:28;;;;;;;9.20;6.80;;;;;;;9.02;88.34;98892.80;114648;1202;139081;-91
2021/10/02 06:51:59;;;;;;;9.20;6.40;;;;;;;9.11;88.16;98894.69;114218;1203;24248;-89
2021/10/02 06:54:26;;;;;;;10.60;6.70;;;;;;;9.19;88.07;98892.34;114387;1203;137259;-90
2021/10/02 06:56:57;;;;;;;11.10;6.90;;;;;;;9.27;87.95;98894.14;114384;1203;25325;-91
2021/10/02 06:59:27;;;;;;;9.20;6.50;;;;;;;9.32;87.93;98895.50;115736;1203;138075;-91
2021/10/02 07:04:45;;;;;;;10.90;6.50;;;;;;;9.49;87.91;98897.69;115021;1196;22397;-84
2021/10/02 07:07:26;;;;;;;9.20;7.10;;;;;;;9.64;88.18;98892.88;113618;1203;137998;-84
2021/10/02 07:09:54;;;;;;;9.80;6.70;;;;;;;9.74;87.71;98898.65;114745;1203;22460;-92
2021/10/02 07:12:21;;;;;;;11.50;7.20;;;;;;;9.84;87.67;98893.79;115287;1203;137150;-87
2021/10/02 07:14:47;;;;;;;10.10;6.80;;;;;;;9.95;87.46;98897.17;114969;1204;22434;-80
2021/10/02 07:17:13;;;;;;;8.60;6.50;;;;;;;10.04;87.41;98896.62;114120;1197;26397;-85
2021/10/02 07:19:39;;;;;;;8.80;6.70;;;;;;;10.12;86.92;98896.65;113629;1204;138756;-80
2021/10/02 07:22:06;;;;;;;9.50;6.50;;;;;;;10.18;87.12;98895.17;115046;1197;25018;-79
2021/10/02 07:24:32;;;;;;;9.40;6.90;;;;;;;10.27;86.72;98899.02;113982;1203;137498;-79
2021/10/02 07:26:59;;;;;;;12.90;7.70;;;;;;;10.35;86.80;98898.71;113908;1197;24082;-80
2021/10/02 07:29:25;;;;;;;12.70;7.20;;;;;;;10.45;86.96;98902.11;113947;1197;139723;-80
2021/10/02 07:31:51;;;;;;;10.00;7.00;;;;;;;10.55;87.02;98900.96;113785;1203;22426;-80
2021/10/02 07:34:18;;;;;;;12.00;6.90;;;;;;;10.66;86.69;98901.17;113671;1204;24052;-80
2021/10/02 07:36:44;;;;;;;9.50;6.50;;;;;;;10.75;86.34;98901.14;113534;1198;137912;-82
2021/10/02 07:39:10;;;;;;;11.50;7.80;;;;;;;10.84;86.16;98900.48;113797;1203;25021;-79
2021/10/02 07:41:44;;;;;;;10.80;6.70;;;;;;;10.94;86.12;98904.79;113597;1204;137730;-80
2021/10/02 07:44:29;;;;;;;11.10;6.90;;;;;;;11.07;86.20;98907.81;113750;1203;22459;-80
2021/10/02 07:46:56;;;;;;;10.60;6.80;;;;;;;11.16;86.05;98910.70;113639;1203;22471;-79
2021/10/02 07:49:27;;;;;;;11.50;6.30;;;;;;;11.25;85.75;98904.57;113578;1203;138212;-79
2021/10/02 07:51:54;;;;;;;10.30;6.60;;;;;;;11.36;85.76;98901.48;113768;1203;24269;-79
2021/10/02 07:54:25;;;;;;;10.80;7.10;;;;;;;11.46;85.63;98901.70;113737;1196;137777;-81
2021/10/02 07:57:06;;;;;;;13.00;7.70;;;;;;;11.57;85.43;98897.08;114155;1203;22458;-81
2021/10/02 07:59:32;;;;;;;15.10;8.30;;;;;;;11.67;84.89;98897.30;113426;1203;137660;-82
2021/10/02 08:01:59;;;;;;;13.00;7.30;;;;;;;11.76;84.77;98891.69;113768;1203;22512;-81
2021/10/02 08:04:25;;;;;;;12.30;7.80;;;;;;;11.88;84.85;98894.94;113725;1203;25023;-83
2021/10/02 08:06:52;;;;;;;15.00;8.00;;;;;;;11.99;84.40;98897.02;113928;1203;138095;-81
2021/10/02 08:09:20;;;;;;;16.00;8.60;;;;;;;12.08;84.14;98894.31;113797;1202;22471;-82
2021/10/02 08:11:46;;;;;;;14.20;8.90;;;;;;;12.18;84.02;98895.09;113490;1204;137880;-81
2021/10/02 08:14:13;;;;;;;13.20;8.50;;;;;;;12.27;83.74;98893.56;113503;1199;24195;-81
2021/10/02 08:16:56;;;;;;;15.90;8.60;;;;;;;12.39;83.81;98890.17;114012;1199;24081;-83
2021/10/02 08:19:23;;;;;;;16.40;8.80;;;;;;;12.50;83.45;98889.16;114186;1203;138245;-83
2021/10/02 08:21:51;;;;;;;17.50;9.00;;;;;;;12.61;83.45;98892.64;113780;1203;22441;-84
2021/10/02 08:24:20;;;;;;;16.00;9.30;;;;;;;12.73;83.07;98889.80;113683;1198;137515;-85
2021/10/02 08:26:52;;;;;;;15.30;9.10;;;;;;;12.82;82.90;98892.24;113500;1204;22923;-84
2021/10/02 08:29:20;;;;;;;15.90;9.10;;;;;;;12.91;82.66;98889.88;114768;1203;25583;-82
2021/10/02 08:31:47;;;;;;;11.20;8.50;;;;;;;13.02;82.69;98892.19;113864;1203;138184;-82
2021/10/02 08:34:14;;;;;;;13.20;9.10;;;;;;;13.13;82.06;98893.54;113662;1204;25118;-84
2021/10/02 08:36:54;;;;;;;13.60;8.60;;;;;;;13.24;82.05;98893.65;113609;1203;138363;-80
2021/10/02 08:39:21;;;;;;;17.10;9.90;;;;;;;13.37;82.00;98888.23;113756;1197;22441;-82
2021/10/02 08:41:50;;;;;;;14.90;9.70;;;;;;;13.49;81.69;98884.05;114258;1203;137817;-80
2021/10/02 08:44:18;;;;;;;13.30;9.00;;;;;;;13.61;81.68;98888.05;113960;1203;22337;-80
2021/10/02 08:46:46;;;;;;;13.90;8.60;;;;;;;13.73;81.18;98885.46;113804;1203;23049;-81
2021/10/02 08:49:31;;;;;;;17.00;10.30;;;;;;;13.87;80.68;98885.79;113929;1203;138027;-80
2021/10/02 08:52:14;;;;;;;12.90;8.80;;;;;;;14.05;80.67;98886.15;113802;1204;24277;-80
2021/10/02 08:54:46;;;;;;;16.00;9.40;;;;;;;14.19;80.64;98884.60;113507;1204;137534;-80
2021/10/02 08:57:17;;;;;;;12.70;10.00;;;;;;;14.33;80.02;98879.98;114360;1197;22436;-82
2021/10/02 08:59:44;;;;;;;16.10;10.30;;;;;;;14.44;79.40;98880.46;113992;1198;137960;-80
2021/10/02 09:02:26;;;;;;;17.00;8.80;;;;;;;14.57;79.05;98880.70;113818;1203;22554;-81
2021/10/02 09:04:53;;;;;;;16.70;9.80;;;;;;;14.68;78.79;98879.43;114167;1203;25172;-79
2021/10/02 09:07:35;;;;;;;12.00;9.20;;;;;;;14.82;78.73;98877.96;113644;1203;137874;-80
2021/10/02 09:10:03;;;;;;;14.60;9.90;;;;;;;14.96;78.27;98879.50;113739;1203;22455;-80
2021/10/02 09:12:31;;;;;;;12.30;9.60;;;;;;;15.10;78.04;98878.55;113821;1203;137894;-80
2021/10/02 09:15:02;;;;;;;13.70;9.80;;;;;;;15.24;77.24;98877.04;114244;1203;24374;-80
2021/10/02 09:17:44;;;;;;;13.10;9.70;;;;;;;15.39;76.73;98871.64;113988;1204;137691;-80
2021/10/02 09:20:12;;;;;;;17.20;9.90;;;;;;;15.52;76.46;98867.81;113607;1187;23162;-80
2021/10/02 09:22:53;;;;;;;12.00;8.90;;;;;;;15.67;76.13;98865.08;114053;1203;22540;-80
2021/10/02 09:25:44;;;;;;;14.70;9.20;;;;;;;15.77;74.79;98860.96;113860;1203;138461;-80
2021/10/02 09:28:14;;;;;;;12.80;8.60;;;;;;;15.87;74.20;98862.75;113892;1203;22472;-80
2021/10/02 09:30:43;;;;;;;13.20;8.90;;;;;;;15.95;73.61;98855.36;113678;1203;138081;-80
2021/10/02 09:33:14;;;;;;;12.80;9.10;;;;;;;16.04;73.67;98853.86;113987;1203;25064;-80
2021/10/02 09:35:55;;;;;;;12.60;9.60;;;;;;;16.17;74.00;98858.27;114033;1203;137690;-80
2021/10/02 09:38:21;;;;;;;13.90;9.70;;;;;;;16.31;73.62;98858.58;114559;1203;23102;-80
2021/10/02 09:40:57;;;;;;;11.60;9.40;;;;;;;16.43;72.62;98856.61;113729;1203;24245;-80
2021/10/02 09:43:24;;;;;;;13.20;10.30;;;;;;;16.56;72.64;98852.48;113407;1203;24180;-80
2021/10/02 09:45:51;;;;;;;11.50;9.70;;;;;;;16.67;71.91;98849.68;113394;1199;25113;-80
2021/10/02 09:48:25;;;;;;;13.60;9.70;;;;;;;16.73;71.42;98847.64;113383;1203;23126;-80
2021/10/02 09:50:52;;;;;;;10.60;7.60;;;;;;;16.84;71.66;98846.94;113746;1197;23807;-80
2021/10/02 09:53:20;;;;;;;14.10;9.20;;;;;;;16.96;71.65;98845.84;113414;1203;22458;-79
2021/10/02 09:56:06;;;;;;;12.60;9.30;;;;;;;17.09;70.95;98845.05;113607;1203;22478;-79
2021/10/02 09:58:35;;;;;;;13.70;9.20;;;;;;;17.20;70.09;98844.30;114091;1203;22849;-79
2021/10/02 10:01:04;;;;;;;11.70;9.80;;;;;;;17.30;69.26;98842.35;113496;1196;22447;-80
2021/10/02 10:03:48;;;;;;;11.80;9.40;;;;;;;17.40;68.16;98831.70;113378;1180;24118;-79
2021/10/02 10:06:24;;;;;;;12.90;10.10;;;;;;;17.54;67.07;98838.02;113245;1203;25139;-80
2021/10/02 10:09:11;;;;;;;12.30;9.40;;;;;;;17.63;66.65;98837.05;113062;1204;25046;-79
2021/10/02 10:11:44;;;;;;;11.80;9.50;;;;;;;17.73;67.17;98836.79;113317;1203;23451;-79
2021/10/02 10:14:30;;;;;;;15.50;9.50;;;;;;;17.81;67.02;98836.59;113297;1203;22460;-79
2021/10/02 10:16:57;;;;;;;12.70;9.20;;;;;;;17.91;66.60;98834.42;113156;1203;22446;-80
2021/10/02 10:19:26;;;;;;;11.90;10.00;;;;;;;17.97;65.52;98826.72;113170;1203;24122;-80
2021/10/02 10:22:05;;;;;;;14.60;10.10;;;;;;;18.05;65.51;98827.78;113417;1203;22466;-80
2021/10/02 10:24:58;;;;;;;16.30;10.20;;;;;;;18.15;65.40;98820.94;113426;1203;24215;-80
2021/10/02 10:27:32;;;;;;;11.40;9.60;;;;;;;18.24;64.58;98824.34;113262;1203;25138;-80
2021/10/02 10:30:15;;;;;;;14.20;9.90;;;;;;;18.31;63.07;98821.82;113382;1203;22442;-80
2021/10/02 10:33:08;;;;;;;12.50;9.40;;;;;;;18.41;63.74;98823.39;113234;1200;22429;-80
2021/10/02 10:35:38;;;;;;;11.40;9.40;;;;;;;18.53;63.14;98815.91;113633;1204;22457;-80
2021/10/02 10:38:08;;;;;;;14.30;10.40;;;;;;;18.60;61.77;98815.23;113604;1203;25282;-80
2021/10/02 10:40:35;;;;;;;13.10;9.90;;;;;;;18.64;61.49;98815.20;113711;1203;25275;-79
2021/10/02 10:43:17;;;;;;;14.20;10.20;;;;;;;18.70;61.51;98815.59;113199;1203;25392;-79
2021/10/02 10:45:43;;;;;;;13.60;9.70;;;;;;;18.78;61.17;98814.24;113448;1203;22487;-79
2021/10/02 10:48:11;;;;;;;12.20;9.20;;;;;;;18.86;60.93;98811.95;113266;1198;25129;-80
2021/10/02 10:50:41;;;;;;;11.90;10.60;;;;;;;18.93;60.36;98813.25;113141;1200;22442;-79
2021/10/02 10:53:09;;;;;;;11.60;9.70;;;;;;;19.00;59.72;98806.13;113458;1202;22426;-80
2021/10/02 10:55:51;;;;;;;10.70;9.50;;;;;;;19.10;59.37;98802.27;113473;1203;22486;-79
2021/10/02 10:58:26;;;;;;;16.50;10.40;;;;;;;19.15;58.45;98796.67;113509;1204;23647;-79
2021/10/02 11:00:53;;;;;;;13.30;9.70;;;;;;;19.21;58.90;98795.78;113212;1203;22450;-79
2021/10/02 11:03:38;;;;;;;13.40;9.10;;;;;;;19.30;59.11;98789.88;113059;1203;25129;-80
2021/10/02 11:06:06;;;;;;;10.70;9.50;;;;;;;19.40;58.74;98789.59;113418;1203;23033;-79
2021/10/02 11:08:59;;;;;;;12.00;10.00;;;;;;;19.46;58.31;98786.77;113228;1203;25096;-79
2021/10/02 11:11:51;;;;;;;12.10;8.90;;;;;;;19.54;57.86;98785.55;113113;1203;23091;-80
2021/10/02 11:14:51;;;;;;;12.10;10.00;;;;;;;19.61;56.74;98776.06;113305;1203;22437;-80
2021/10/02 11:17:39;;;;;;;12.90;10.30;;;;;;;19.67;56.99;98772.19;114299;1197;22663;-79
2021/10/02 11:20:17;;;;;;;11.00;9.30;;;;;;;19.73;56.63;98769.67;113667;1203;22438;-80
2021/10/02 11:23:26;;;;;;;14.40;9.80;;;;;;;19.78;56.71;98770.63;113851;1196;23946;-80
2021/10/02 11:26:24;;;;;;;14.00;9.50;;;;;;;19.84;56.73;98762.58;113589;1197;22834;-80
2021/10/02 11:29:17;;;;;;;12.50;10.20;;;;;;;19.94;56.47;98761.92;113738;1204;22459;-80
2021/10/02 11:31:44;;;;;;;12.90;9.60;;;;;;;20.03;55.63;98762.30;113685;1203;22448;-80
2021/10/02 11:34:36;;;;;;;11.90;9.50;;;;;;;20.00;55.77;98761.61;113849;1203;22459;-79
2021/10/02 11:37:09;;;;;;;14.50;9.60;;;;;;;19.93;55.61;98758.77;113217;1196;25189;-79
2021/10/02 11:39:36;;;;;;;12.30;9.70;;;;;;;19.99;55.41;98757.88;113111;1203;22542;-79
2021/10/02 11:42:14;;;;;;;11.50;10.00;;;;;;;20.08;56.18;98756.08;113163;1203;22471;-80
2021/10/02 11:44:44;;;;;;;12.50;9.10;;;;;;;20.19;55.01;98751.66;113225;1203;22437;-80
2021/10/02 11:47:37;;;;;;;11.80;8.80;;;;;;;20.26;54.61;98753.63;113220;1203;25137;-80
2021/10/02 11:50:07;;;;;;;13.00;8.70;;;;;;;20.37;53.93;98751.03;113265;1200;24742;-80
2021/10/02 11:52:34;;;;;;;10.80;7.80;;;;;;;20.46;53.69;98749.05;113209;1203;22440;-80
2021/10/02 11:55:44;;;;;;;10.30;8.50;;;;;;;20.53;53.26;98748.81;113549;1203;23799;-79
2021/10/02 11:58:12;;;;;;;9.90;8.80;;;;;;;20.56;53.09;98754.23;113152;1203;22445;-79
2021/10/02 12:00:44;;;;;;;12.90;9.90;;;;;;;20.63;52.54;98747.77;113339;1203;23163;-79
2021/10/02 12:03:12;;;;;;;10.60;9.10;;;;;;;20.57;52.53;98746.57;113381;1203;26279;-80
2021/10/02 12:05:44;;;;;;;13.90;9.40;;;;;;;20.44;52.57;98745.86;113364;1203;22915;-80
2021/10/02 12:08:11;;;;;;;13.70;9.20;;;;;;;20.35;52.04;98744.25;113288;1197;24210;-80
2021/10/02 12:11:15;;;;;;;12.60;9.20;;;;;;;20.32;52.51;98740.64;113363;1203;23126;-80
2021/10/02 12:13:50;;;;;;;13.10;9.80;;;;;;;20.38;52.09;98744.21;113131;1203;24108;-79
2021/10/02 12:16:29;;;;;;;11.10;9.40;;;;;;;20.46;52.42;98744.10;113204;1203;22448;-80
2021/10/02 12:19:00;;;;;;;13.40;10.20;;;;;;;20.55;52.00;98740.52;113291;1204;25059;-79
2021/10/02 12:21:49;;;;;;;10.90;9.40;;;;;;;20.62;52.26;98731.73;113064;1203;22466;-81
2021/10/02 12:24:36;;;;;;;10.90;8.70;;;;;;;20.72;51.51;98730.52;113330;1187;24048;-82
2021/10/02 12:27:18;;;;;;;10.30;8.50;;;;;;;20.81;51.14;98732.34;113045;1203;22434;-82
2021/10/02 12:29:45;;;;;;;11.00;8.80;;;;;;;20.91;51.00;98733.80;113498;1203;22455;-80
2021/10/02 12:32:13;;;;;;;12.10;8.80;;;;;;;21.00;50.34;98730.30;113673;1196;22429;-84
2021/10/02 12:34:40;;;;;;;9.10;8.20;;;;;;;21.07;50.04;98721.02;113227;1202;22696;-75
2021/10/02 12:37:10;;;;;;;10.80;8.70;;;;;;;21.08;49.11;98725.27;113128;1203;25128;-75
2021/10/02 12:39:44;;;;;;;12.30;9.70;;;;;;;21.12;49.86;98725.14;113609;1202;22894;-76
2021/10/02 12:42:14;;;;;;;12.00;8.50;;;;;;;21.14;49.80;98726.25;113216;1202;22445;-75
2021/10/02 12:44:46;;;;;;;10.10;8.20;;;;;;;21.15;48.93;98720.04;113337;1204;23945;-75
2021/10/02 12:47:13;;;;;;;10.60;8.60;;;;;;;21.13;48.80;98723.56;113098;1203;24211;-76
2021/10/02 12:49:43;;;;;;;9.80;8.80;;;;;;;21.13;49.09;98726.28;113277;1203;24990;-74
2021/10/02 12:52:24;;;;;;;13.60;8.60;;;;;;;21.16;48.74;98726.05;113135;1196;22446;-74
2021/10/02 12:54:56;;;;;;;9.50;7.70;;;;;;;21.22;48.89;98727.03;113557;1196;22441;-74
2021/10/02 12:57:35;;;;;;;11.10;8.60;;;;;;;21.29;48.96;98717.41;113340;1203;24078;-74
2021/10/02 13:00:08;;;;;;;9.60;8.60;;;;;;;21.36;49.20;98719.59;113054;1203;23392;-74
2021/10/02 13:02:52;;;;;;;9.90;8.90;;;;;;;21.42;48.17;98718.19;112997;1204;22470;-74
2021/10/02 13:05:21;;;;;;;10.70;8.70;;;;;;;21.48;48.25;98717.64;113221;1203;25388;-75
2021/10/02 13:07:51;;;;;;;;;;;;;;;21.52;47.03;98714.79;113202;1201;25027;-74
2021/10/02 13:10:20;;;;;;;10.80;8.30;;;;;;;21.51;47.87;98715.92;113018;1203;22459;-74
2021/10/02 13:12:53;;;;;;;13.70;9.70;;;;;;;21.58;48.17;98707.02;113108;1203;23899;-74
2021/10/02 13:15:54;;;;;;;12.30;8.80;;;;;;;21.66;47.94;98707.21;112972;1203;22439;-74
2021/10/02 13:18:26;;;;;;;10.60;8.30;;;;;;;21.71;46.79;98704.61;112944;1203;22894;-74
2021/10/02 13:20:58;;;;;;;10.00;8.20;;;;;;;21.71;47.15;98704.65;113016;1196;144113;-73
2021/10/02 13:23:41;;;;;;;9.60;8.10;;;;;;;21.78;47.34;98700.62;113016;1204;86328;-73
2021/10/02 13:26:11;;;;;;;8.90;7.70;;;;;;;21.84;47.33;98701.92;113033;1203;22469;-79
2021/10/02 13:28:47;;;;;;;9.00;7.40;;;;;;;21.88;46.89;98698.60;113022;1203;137654;-78